Galesburg, Kansas
Current Conditions -  °F | °C
As of 6:52 PM on Friday 28 Nov 2014 (Local Time) from KPPF Reporting Station
Clear Clear  
Wind Chill: 55°   Ceiling: Unl
Heat Index: 55°   Visibility: 10mi
Dew Point: 40°   Wind: 9mph
Humidity: 57%   Direction: 180°S
Pressure: 29.87"   Gusts: NA
Location:  37.47°N, 95.36°W
Report Text: KPPF 290052Z AUTO 18008KT 10SM CLR 13/04 A2987 RMK AO2 SLP116 T01280044
Loading
Personal Weather Stations






























Interactive Weather Map New forecast layout! Learn more

10-Day Weather Forecast

Advertisements
Track Severe Weather on mobile